Jeffersonville, New York
Current Conditions -  °F | °C
As of 8:35 AM on Tuesday 21 Oct 2014 (Local Time) from KMSV Reporting Station
Overcast Overcast  
Wind Chill: 41°   Ceiling: 3100
Heat Index: 45°   Visibility: 1.2mi
Dew Point: 45°   Wind: 7mph
Humidity: 100%   Direction: 40°NE
Pressure: 29.9"   Gusts: NA
Location:  41.78°N, 74.93°W
Report Text: KMSV 211235Z AUTO 04006KT 1 1/4SM SCT009 SCT021 OVC031 07/07 A2990 RMK AO1 70014
Loading
Personal Weather Stations






























Interactive Weather Map
Tropical Storm Tracking
New forecast layout! Learn more

10-Day Weather Forecast

Advertisements
Track Severe Weather on mobile